createdAt,value
2022-09-28T00:04:29.152Z,71.93
2022-09-28T00:14:53.902Z,72.03
2022-09-28T00:25:21.454Z,71.66
2022-09-28T00:36:01.009Z,71.36
2022-09-28T00:46:34.950Z,71.28
2022-09-28T00:57:02.578Z,71.47
2022-09-28T01:07:29.536Z,71.88
2022-09-28T01:18:06.821Z,71.85
2022-09-28T01:28:32.553Z,72.09
2022-09-28T01:39:02.156Z,71.52
2022-09-28T01:49:31.809Z,71.24
2022-09-28T02:00:02.639Z,71.53
2022-09-28T02:10:33.953Z,71.24
2022-09-28T02:21:06.997Z,71.09
2022-09-28T02:31:31.812Z,70.72
2022-09-28T02:42:07.371Z,70.93
2022-09-28T02:52:53.354Z,71.16
2022-09-28T03:03:25.125Z,70.68
2022-09-28T03:13:50.328Z,69.98
2022-09-28T03:24:14.935Z,69.29
2022-09-28T03:34:39.486Z,68.92
2022-09-28T03:45:05.178Z,68.92
2022-09-28T03:55:29.969Z,68.61
2022-09-28T04:05:54.605Z,67.80
2022-09-28T04:16:19.327Z,68.17
2022-09-28T04:26:44.030Z,68.79
2022-09-28T04:37:08.688Z,69.03
2022-09-28T04:47:33.298Z,69.39
2022-09-28T04:58:01.980Z,69.93
2022-09-28T05:08:27.012Z,70.35
2022-09-28T05:18:55.572Z,70.31
2022-09-28T05:29:20.198Z,70.90
2022-09-28T05:39:44.891Z,71.32
2022-09-28T05:50:11.413Z,72.13
2022-09-28T06:00:36.683Z,72.74
2022-09-28T06:11:02.265Z,73.07
2022-09-28T06:21:26.911Z,72.94
2022-09-28T06:31:51.543Z,72.04
2022-09-28T06:42:18.185Z,70.89
2022-09-28T06:52:42.838Z,70.31
2022-09-28T07:03:18.344Z,69.24
2022-09-28T07:13:50.521Z,68.62
2022-09-28T07:24:16.147Z,66.64
2022-09-28T07:34:43.181Z,65.47
2022-09-28T07:45:09.477Z,64.86
2022-09-28T07:55:34.080Z,64.43
2022-09-28T08:06:03.382Z,64.55
2022-09-28T08:16:29.679Z,62.56
2022-09-28T08:26:55.104Z,62.43
2022-09-28T08:37:19.716Z,61.56
2022-09-28T08:48:11.549Z,61.00
2022-09-28T08:58:41.514Z,58.93
2022-09-28T09:09:16.358Z,58.17
2022-09-28T09:19:52.352Z,58.02
2022-09-28T09:30:21.399Z,57.67
2022-09-28T09:41:07.871Z,58.07
2022-09-28T09:51:40.757Z,57.78
2022-09-28T10:02:22.559Z,57.18
2022-09-28T10:12:49.641Z,57.14
2022-09-28T10:23:22.597Z,56.41
2022-09-28T10:33:47.332Z,56.10
2022-09-28T10:44:18.187Z,56.90
2022-09-28T10:54:53.387Z,54.67
2022-09-28T11:05:22.986Z,53.89
2022-09-28T11:15:47.841Z,53.54
2022-09-28T11:26:17.702Z,54.68
2022-09-28T11:37:01.749Z,54.79
2022-09-28T11:47:57.287Z,54.50
2022-09-28T11:58:28.576Z,54.85
2022-09-28T12:09:00.327Z,54.93
2022-09-28T12:19:32.043Z,54.00
2022-09-28T12:30:00.270Z,53.92
2022-09-28T12:40:37.016Z,54.21
2022-09-28T12:51:16.345Z,54.56
2022-09-28T13:02:00.232Z,55.49
2022-09-28T13:12:36.797Z,56.89
2022-09-28T13:23:11.736Z,57.82
2022-09-28T13:33:40.500Z,58.37
2022-09-28T13:44:34.751Z,58.37
2022-09-28T13:55:13.593Z,58.92
2022-09-28T14:06:03.204Z,59.21
2022-09-28T14:16:31.408Z,58.85
2022-09-28T14:27:19.282Z,58.33
2022-09-28T14:38:06.358Z,57.90
2022-09-28T14:48:47.369Z,58.16
2022-09-28T14:59:17.554Z,58.39
2022-09-28T15:09:42.742Z,58.74
2022-09-28T15:20:25.176Z,59.10
2022-09-28T15:30:50.183Z,59.50
2022-09-28T15:41:14.979Z,60.57
2022-09-28T15:51:51.856Z,62.53
2022-09-28T16:02:19.303Z,63.96
2022-09-28T16:12:48.068Z,65.08
2022-09-28T16:23:21.158Z,65.64
2022-09-28T16:33:53.642Z,66.23
2022-09-28T16:44:24.094Z,67.12
2022-09-28T16:55:22.785Z,67.52
2022-09-28T17:05:52.631Z,67.87
2022-09-28T17:16:32.208Z,68.13
2022-09-28T17:27:06.381Z,68.24
2022-09-28T17:37:34.011Z,68.51
2022-09-28T17:47:59.321Z,68.59
2022-09-28T17:58:24.007Z,68.45
2022-09-28T18:08:49.145Z,68.43
2022-09-28T18:19:14.625Z,68.28
2022-09-28T18:29:39.492Z,68.30
2022-09-28T18:40:05.141Z,68.30
2022-09-28T18:50:29.981Z,68.08
2022-09-28T19:01:08.517Z,69.38
2022-09-28T19:11:39.305Z,69.44
2022-09-28T19:22:04.461Z,69.54
2022-09-28T19:32:30.441Z,70.31
2022-09-28T19:42:55.152Z,69.87
2022-09-28T19:53:19.760Z,70.28
2022-09-28T20:03:44.388Z,69.58
2022-09-28T20:14:09.842Z,69.58
2022-09-28T20:24:34.558Z,70.26
2022-09-28T20:34:59.181Z,70.73
2022-09-28T20:45:23.899Z,70.66
2022-09-28T20:55:48.563Z,70.74
2022-09-28T21:06:13.835Z,70.80
2022-09-28T21:16:38.897Z,70.52
2022-09-28T21:27:03.731Z,70.55
2022-09-28T21:37:28.353Z,70.54
2022-09-28T21:47:54.218Z,70.27
2022-09-28T21:58:22.623Z,69.88
2022-09-28T22:08:48.739Z,69.91
2022-09-28T22:19:13.304Z,69.25
2022-09-28T22:29:37.984Z,69.13
2022-09-28T22:40:03.065Z,68.87
2022-09-28T22:50:27.938Z,68.29
2022-09-28T23:00:52.892Z,68.12
2022-09-28T23:11:17.925Z,68.17
2022-09-28T23:21:42.556Z,68.19
2022-09-28T23:32:07.509Z,68.49
2022-09-28T23:42:32.259Z,68.59
2022-09-28T23:52:56.892Z,69.25
